Terminal Aerodrome Forecast
Issued by NWS

Home | Current Version | Previous Version | Text Only | Print | Product List | Glossary On
Versions: 1 2 3 4 5 6 7 8 9 10 11 12 13 14 15 16 17 18 19 20 21 22 23 24
000
FTUS43 KGLD 300554 AAB
TAFMCK
TAF AMD
KMCK 300554Z 3006/3106 00000KT P6SM VCSH BKN080
     FM301000 09004KT 5SM BR BKN060
      TEMPO 3012/3014 3SM BR BKN025
     FM301500 06005KT P6SM OVC060 PROB30 3020/3102 -TSRA BKN025CB
     FM310400 08004KT P6SM BKN025=

USA.gov is the U.S. government's official web portal to all federal, state and local government web resources and services.